sensor_id;sensor_type;location;lat;lon;timestamp;P1;durP1;ratioP1;P2;durP2;ratioP2
14373;SDS011;7270;49.004;12.066;2023-04-01T00:02:20;1.10;;;1.10;;
14373;SDS011;7270;49.004;12.066;2023-04-01T00:04:46;1.10;;;1.10;;
14373;SDS011;7270;49.004;12.066;2023-04-01T00:07:12;1.00;;;1.00;;
14373;SDS011;7270;49.004;12.066;2023-04-01T00:09:39;1.00;;;1.00;;
14373;SDS011;7270;49.004;12.066;2023-04-01T00:12:05;1.00;;;1.00;;
14373;SDS011;7270;49.004;12.066;2023-04-01T00:14:31;1.10;;;1.10;;
14373;SDS011;7270;49.004;12.066;2023-04-01T00:16:59;1.07;;;1.07;;
14373;SDS011;7270;49.004;12.066;2023-04-01T00:19:25;1.00;;;1.00;;
14373;SDS011;7270;49.004;12.066;2023-04-01T00:21:52;1.10;;;1.10;;
14373;SDS011;7270;49.004;12.066;2023-04-01T00:24:18;1.10;;;1.10;;
14373;SDS011;7270;49.004;12.066;2023-04-01T00:26:44;1.10;;;1.10;;
14373;SDS011;7270;49.004;12.066;2023-04-01T00:29:12;1.00;;;1.00;;
14373;SDS011;7270;49.004;12.066;2023-04-01T00:31:38;1.00;;;1.00;;
14373;SDS011;7270;49.004;12.066;2023-04-01T00:34:06;1.10;;;1.10;;
14373;SDS011;7270;49.004;12.066;2023-04-01T00:36:33;1.10;;;1.10;;
14373;SDS011;7270;49.004;12.066;2023-04-01T00:38:59;1.10;;;1.10;;
14373;SDS011;7270;49.004;12.066;2023-04-01T00:41:25;1.10;;;1.10;;
14373;SDS011;7270;49.004;12.066;2023-04-01T00:46:46;1.10;;;1.10;;
14373;SDS011;7270;49.004;12.066;2023-04-01T00:49:14;1.00;;;1.00;;
14373;SDS011;7270;49.004;12.066;2023-04-01T00:51:41;1.00;;;1.00;;
14373;SDS011;7270;49.004;12.066;2023-04-01T00:54:09;0.90;;;0.90;;
14373;SDS011;7270;49.004;12.066;2023-04-01T00:56:36;1.00;;;1.00;;
14373;SDS011;7270;49.004;12.066;2023-04-01T00:59:05;1.00;;;1.00;;
14373;SDS011;7270;49.004;12.066;2023-04-01T01:01:33;1.00;;;1.00;;
14373;SDS011;7270;49.004;12.066;2023-04-01T01:04:00;1.03;;;1.03;;
14373;SDS011;7270;49.004;12.066;2023-04-01T01:06:33;1.00;;;1.00;;
14373;SDS011;7270;49.004;12.066;2023-04-01T01:09:12;1.10;;;1.10;;
14373;SDS011;7270;49.004;12.066;2023-04-01T01:11:41;1.10;;;1.10;;
14373;SDS011;7270;49.004;12.066;2023-04-01T01:14:10;1.10;;;1.10;;
14373;SDS011;7270;49.004;12.066;2023-04-01T01:16:40;1.00;;;1.00;;
14373;SDS011;7270;49.004;12.066;2023-04-01T01:19:09;0.90;;;0.90;;
14373;SDS011;7270;49.004;12.066;2023-04-01T01:21:49;1.10;;;1.10;;
14373;SDS011;7270;49.004;12.066;2023-04-01T01:24:27;1.00;;;1.00;;
14373;SDS011;7270;49.004;12.066;2023-04-01T01:26:59;1.00;;;1.00;;
14373;SDS011;7270;49.004;12.066;2023-04-01T01:32:18;1.10;;;1.10;;
14373;SDS011;7270;49.004;12.066;2023-04-01T01:34:48;1.20;;;1.20;;
14373;SDS011;7270;49.004;12.066;2023-04-01T01:37:19;1.10;;;1.10;;
14373;SDS011;7270;49.004;12.066;2023-04-01T01:39:48;1.00;;;1.00;;
14373;SDS011;7270;49.004;12.066;2023-04-01T01:42:15;1.10;;;1.10;;
14373;SDS011;7270;49.004;12.066;2023-04-01T01:44:44;0.90;;;0.90;;
14373;SDS011;7270;49.004;12.066;2023-04-01T01:47:11;1.10;;;1.10;;
14373;SDS011;7270;49.004;12.066;2023-04-01T01:49:39;1.10;;;1.10;;
14373;SDS011;7270;49.004;12.066;2023-04-01T01:52:07;1.10;;;1.10;;
14373;SDS011;7270;49.004;12.066;2023-04-01T01:54:35;1.10;;;1.10;;
14373;SDS011;7270;49.004;12.066;2023-04-01T01:57:03;1.07;;;1.07;;
14373;SDS011;7270;49.004;12.066;2023-04-01T01:59:30;1.10;;;1.10;;
14373;SDS011;7270;49.004;12.066;2023-04-01T02:01:57;1.03;;;1.03;;
14373;SDS011;7270;49.004;12.066;2023-04-01T02:04:24;1.10;;;1.10;;
14373;SDS011;7270;49.004;12.066;2023-04-01T02:06:53;1.00;;;1.00;;
14373;SDS011;7270;49.004;12.066;2023-04-01T02:09:22;1.00;;;1.00;;
14373;SDS011;7270;49.004;12.066;2023-04-01T02:11:51;1.00;;;1.00;;
14373;SDS011;7270;49.004;12.066;2023-04-01T02:14:24;1.03;;;1.03;;
14373;SDS011;7270;49.004;12.066;2023-04-01T02:16:53;1.00;;;1.00;;
14373;SDS011;7270;49.004;12.066;2023-04-01T02:19:21;1.00;;;1.00;;
14373;SDS011;7270;49.004;12.066;2023-04-01T02:21:49;1.00;;;1.00;;
14373;SDS011;7270;49.004;12.066;2023-04-01T02:24:16;1.00;;;1.00;;
14373;SDS011;7270;49.004;12.066;2023-04-01T02:26:46;1.10;;;1.10;;
14373;SDS011;7270;49.004;12.066;2023-04-01T02:29:14;1.10;;;1.10;;
14373;SDS011;7270;49.004;12.066;2023-04-01T02:31:40;1.10;;;1.10;;
14373;SDS011;7270;49.004;12.066;2023-04-01T02:34:07;1.10;;;1.10;;
14373;SDS011;7270;49.004;12.066;2023-04-01T02:36:34;1.00;;;1.00;;
14373;SDS011;7270;49.004;12.066;2023-04-01T02:39:01;1.00;;;1.00;;
14373;SDS011;7270;49.004;12.066;2023-04-01T02:41:29;1.00;;;1.00;;
14373;SDS011;7270;49.004;12.066;2023-04-01T02:43:55;1.10;;;1.10;;
14373;SDS011;7270;49.004;12.066;2023-04-01T02:46:24;1.00;;;1.00;;
14373;SDS011;7270;49.004;12.066;2023-04-01T02:48:51;0.97;;;0.97;;
14373;SDS011;7270;49.004;12.066;2023-04-01T02:51:18;1.10;;;1.10;;
14373;SDS011;7270;49.004;12.066;2023-04-01T02:53:44;1.00;;;1.00;;
14373;SDS011;7270;49.004;12.066;2023-04-01T02:56:11;1.10;;;1.10;;
14373;SDS011;7270;49.004;12.066;2023-04-01T02:58:37;1.00;;;1.00;;
14373;SDS011;7270;49.004;12.066;2023-04-01T03:01:04;1.00;;;1.00;;
14373;SDS011;7270;49.004;12.066;2023-04-01T03:03:32;1.00;;;1.00;;
14373;SDS011;7270;49.004;12.066;2023-04-01T03:05:58;1.00;;;1.00;;
14373;SDS011;7270;49.004;12.066;2023-04-01T03:08:25;1.00;;;1.00;;
14373;SDS011;7270;49.004;12.066;2023-04-01T03:10:51;1.00;;;1.00;;
14373;SDS011;7270;49.004;12.066;2023-04-01T03:13:17;0.87;;;0.87;;
14373;SDS011;7270;49.004;12.066;2023-04-01T03:15:44;1.10;;;1.10;;
14373;SDS011;7270;49.004;12.066;2023-04-01T03:18:10;0.97;;;0.97;;
14373;SDS011;7270;49.004;12.066;2023-04-01T03:20:38;1.10;;;1.10;;
14373;SDS011;7270;49.004;12.066;2023-04-01T03:23:04;1.10;;;1.10;;
14373;SDS011;7270;49.004;12.066;2023-04-01T03:25:30;1.00;;;1.00;;
14373;SDS011;7270;49.004;12.066;2023-04-01T03:27:57;1.00;;;1.00;;
14373;SDS011;7270;49.004;12.066;2023-04-01T03:30:24;1.20;;;1.20;;
14373;SDS011;7270;49.004;12.066;2023-04-01T03:32:51;1.10;;;1.10;;
14373;SDS011;7270;49.004;12.066;2023-04-01T03:35:17;1.10;;;1.10;;
14373;SDS011;7270;49.004;12.066;2023-04-01T03:37:45;1.10;;;1.10;;
14373;SDS011;7270;49.004;12.066;2023-04-01T03:40:11;1.00;;;1.00;;
14373;SDS011;7270;49.004;12.066;2023-04-01T03:42:37;1.20;;;1.20;;
14373;SDS011;7270;49.004;12.066;2023-04-01T03:45:04;1.20;;;1.20;;
14373;SDS011;7270;49.004;12.066;2023-04-01T03:47:31;1.10;;;1.10;;
14373;SDS011;7270;49.004;12.066;2023-04-01T03:49:57;1.10;;;1.10;;
14373;SDS011;7270;49.004;12.066;2023-04-01T03:52:23;1.00;;;1.00;;
14373;SDS011;7270;49.004;12.066;2023-04-01T03:54:51;1.10;;;1.10;;
14373;SDS011;7270;49.004;12.066;2023-04-01T03:57:17;1.10;;;1.10;;
14373;SDS011;7270;49.004;12.066;2023-04-01T03:59:44;1.20;;;1.20;;
14373;SDS011;7270;49.004;12.066;2023-04-01T04:02:10;1.10;;;1.10;;
14373;SDS011;7270;49.004;12.066;2023-04-01T04:04:36;1.10;;;1.10;;
14373;SDS011;7270;49.004;12.066;2023-04-01T04:07:02;1.00;;;1.00;;
14373;SDS011;7270;49.004;12.066;2023-04-01T04:09:29;1.10;;;1.10;;
14373;SDS011;7270;49.004;12.066;2023-04-01T04:11:57;1.10;;;1.10;;
14373;SDS011;7270;49.004;12.066;2023-04-01T04:14:23;1.10;;;1.10;;
14373;SDS011;7270;49.004;12.066;2023-04-01T04:16:50;1.10;;;1.10;;
14373;SDS011;7270;49.004;12.066;2023-04-01T04:19:16;1.10;;;1.10;;
14373;SDS011;7270;49.004;12.066;2023-04-01T04:21:42;1.00;;;1.00;;
14373;SDS011;7270;49.004;12.066;2023-04-01T04:24:09;1.10;;;1.10;;
14373;SDS011;7270;49.004;12.066;2023-04-01T04:26:35;1.10;;;1.10;;
14373;SDS011;7270;49.004;12.066;2023-04-01T04:29:03;1.00;;;1.00;;
14373;SDS011;7270;49.004;12.066;2023-04-01T04:31:29;1.00;;;1.00;;
14373;SDS011;7270;49.004;12.066;2023-04-01T04:33:58;1.10;;;1.10;;
14373;SDS011;7270;49.004;12.066;2023-04-01T04:36:25;1.10;;;1.10;;
14373;SDS011;7270;49.004;12.066;2023-04-01T04:38:51;1.20;;;1.20;;
14373;SDS011;7270;49.004;12.066;2023-04-01T04:41:18;1.20;;;1.20;;
14373;SDS011;7270;49.004;12.066;2023-04-01T04:43:50;1.00;;;1.00;;
14373;SDS011;7270;49.004;12.066;2023-04-01T04:46:18;1.00;;;1.00;;
14373;SDS011;7270;49.004;12.066;2023-04-01T04:48:45;1.00;;;1.00;;
14373;SDS011;7270;49.004;12.066;2023-04-01T04:51:15;1.10;;;1.10;;
14373;SDS011;7270;49.004;12.066;2023-04-01T04:53:41;1.00;;;1.00;;
14373;SDS011;7270;49.004;12.066;2023-04-01T04:56:08;1.10;;;1.10;;
14373;SDS011;7270;49.004;12.066;2023-04-01T04:58:34;1.00;;;1.00;;
14373;SDS011;7270;49.004;12.066;2023-04-01T05:01:05;1.00;;;1.00;;
14373;SDS011;7270;49.004;12.066;2023-04-01T05:03:32;1.10;;;1.10;;
14373;SDS011;7270;49.004;12.066;2023-04-01T05:05:59;1.10;;;1.10;;
14373;SDS011;7270;49.004;12.066;2023-04-01T05:08:25;1.10;;;1.10;;
14373;SDS011;7270;49.004;12.066;2023-04-01T05:10:51;1.03;;;1.03;;
14373;SDS011;7270;49.004;12.066;2023-04-01T05:13:17;1.10;;;1.10;;
14373;SDS011;7270;49.004;12.066;2023-04-01T05:15:44;1.00;;;1.00;;
14373;SDS011;7270;49.004;12.066;2023-04-01T05:18:10;1.00;;;1.00;;
14373;SDS011;7270;49.004;12.066;2023-04-01T05:20:38;1.20;;;1.20;;
14373;SDS011;7270;49.004;12.066;2023-04-01T05:23:04;1.13;;;1.13;;
14373;SDS011;7270;49.004;12.066;2023-04-01T05:25:33;1.10;;;1.10;;
14373;SDS011;7270;49.004;12.066;2023-04-01T05:27:59;1.30;;;1.30;;
14373;SDS011;7270;49.004;12.066;2023-04-01T05:30:26;1.10;;;1.10;;
14373;SDS011;7270;49.004;12.066;2023-04-01T05:32:52;1.10;;;1.10;;
14373;SDS011;7270;49.004;12.066;2023-04-01T05:35:18;1.10;;;1.10;;
14373;SDS011;7270;49.004;12.066;2023-04-01T05:37:46;1.10;;;1.10;;
14373;SDS011;7270;49.004;12.066;2023-04-01T05:40:12;1.40;;;1.30;;
14373;SDS011;7270;49.004;12.066;2023-04-01T05:42:38;1.07;;;1.07;;
14373;SDS011;7270;49.004;12.066;2023-04-01T05:45:05;1.10;;;1.10;;
14373;SDS011;7270;49.004;12.066;2023-04-01T05:47:32;1.00;;;1.00;;
14373;SDS011;7270;49.004;12.066;2023-04-01T05:49:58;1.20;;;1.20;;
14373;SDS011;7270;49.004;12.066;2023-04-01T05:52:24;1.20;;;1.20;;
14373;SDS011;7270;49.004;12.066;2023-04-01T05:54:52;1.10;;;1.10;;
14373;SDS011;7270;49.004;12.066;2023-04-01T05:57:18;1.10;;;1.10;;
14373;SDS011;7270;49.004;12.066;2023-04-01T05:59:45;1.10;;;1.10;;
14373;SDS011;7270;49.004;12.066;2023-04-01T06:02:12;1.20;;;1.20;;
14373;SDS011;7270;49.004;12.066;2023-04-01T06:04:39;1.00;;;1.00;;
14373;SDS011;7270;49.004;12.066;2023-04-01T06:07:09;1.00;;;1.00;;
14373;SDS011;7270;49.004;12.066;2023-04-01T06:09:36;1.20;;;1.20;;
14373;SDS011;7270;49.004;12.066;2023-04-01T06:12:20;1.17;;;1.17;;
14373;SDS011;7270;49.004;12.066;2023-04-01T06:14:49;1.00;;;1.00;;
14373;SDS011;7270;49.004;12.066;2023-04-01T06:17:21;1.10;;;1.10;;
14373;SDS011;7270;49.004;12.066;2023-04-01T06:19:54;1.10;;;1.10;;
14373;SDS011;7270;49.004;12.066;2023-04-01T06:22:38;1.10;;;1.10;;
14373;SDS011;7270;49.004;12.066;2023-04-01T06:25:27;1.00;;;1.00;;
14373;SDS011;7270;49.004;12.066;2023-04-01T06:28:00;1.10;;;1.10;;
14373;SDS011;7270;49.004;12.066;2023-04-01T06:30:33;1.00;;;1.00;;
14373;SDS011;7270;49.004;12.066;2023-04-01T06:36:04;1.00;;;1.00;;
14373;SDS011;7270;49.004;12.066;2023-04-01T06:38:39;1.10;;;1.10;;
14373;SDS011;7270;49.004;12.066;2023-04-01T06:41:21;1.00;;;1.00;;
14373;SDS011;7270;49.004;12.066;2023-04-01T06:43:55;1.10;;;1.10;;
14373;SDS011;7270;49.004;12.066;2023-04-01T06:46:26;1.00;;;1.00;;
14373;SDS011;7270;49.004;12.066;2023-04-01T06:49:03;1.20;;;1.20;;
14373;SDS011;7270;49.004;12.066;2023-04-01T06:51:32;1.10;;;1.10;;
14373;SDS011;7270;49.004;12.066;2023-04-01T06:54:02;1.00;;;1.00;;
14373;SDS011;7270;49.004;12.066;2023-04-01T06:56:29;1.10;;;1.10;;
14373;SDS011;7270;49.004;12.066;2023-04-01T06:58:58;1.00;;;1.00;;
14373;SDS011;7270;49.004;12.066;2023-04-01T07:01:28;1.00;;;1.00;;
14373;SDS011;7270;49.004;12.066;2023-04-01T07:03:56;1.10;;;1.10;;
14373;SDS011;7270;49.004;12.066;2023-04-01T07:06:25;1.10;;;1.10;;
14373;SDS011;7270;49.004;12.066;2023-04-01T07:08:52;1.00;;;1.00;;
14373;SDS011;7270;49.004;12.066;2023-04-01T07:11:21;1.10;;;1.10;;
14373;SDS011;7270;49.004;12.066;2023-04-01T07:13:51;1.10;;;1.10;;
14373;SDS011;7270;49.004;12.066;2023-04-01T07:16:23;1.10;;;1.10;;
14373;SDS011;7270;49.004;12.066;2023-04-01T07:18:52;1.10;;;1.10;;
14373;SDS011;7270;49.004;12.066;2023-04-01T07:21:23;1.00;;;1.00;;
14373;SDS011;7270;49.004;12.066;2023-04-01T07:23:51;1.10;;;1.10;;
14373;SDS011;7270;49.004;12.066;2023-04-01T07:26:21;1.20;;;1.20;;
14373;SDS011;7270;49.004;12.066;2023-04-01T07:28:48;1.27;;;1.27;;
14373;SDS011;7270;49.004;12.066;2023-04-01T07:31:16;1.20;;;1.20;;
14373;SDS011;7270;49.004;12.066;2023-04-01T07:33:49;1.10;;;1.10;;
14373;SDS011;7270;49.004;12.066;2023-04-01T07:36:18;1.10;;;1.10;;
14373;SDS011;7270;49.004;12.066;2023-04-01T07:38:52;1.10;;;1.10;;
14373;SDS011;7270;49.004;12.066;2023-04-01T07:41:23;1.10;;;1.10;;
14373;SDS011;7270;49.004;12.066;2023-04-01T07:43:58;1.00;;;1.00;;
14373;SDS011;7270;49.004;12.066;2023-04-01T07:46:30;1.10;;;1.10;;
14373;SDS011;7270;49.004;12.066;2023-04-01T07:49:03;1.10;;;1.10;;
14373;SDS011;7270;49.004;12.066;2023-04-01T07:51:31;1.10;;;1.10;;
14373;SDS011;7270;49.004;12.066;2023-04-01T07:54:01;1.10;;;1.10;;
14373;SDS011;7270;49.004;12.066;2023-04-01T07:56:30;1.00;;;1.00;;
14373;SDS011;7270;49.004;12.066;2023-04-01T07:59:00;1.10;;;1.10;;
14373;SDS011;7270;49.004;12.066;2023-04-01T08:01:30;1.00;;;1.00;;
14373;SDS011;7270;49.004;12.066;2023-04-01T08:04:10;1.20;;;1.20;;
14373;SDS011;7270;49.004;12.066;2023-04-01T08:06:42;1.10;;;1.10;;
14373;SDS011;7270;49.004;12.066;2023-04-01T08:09:13;1.20;;;1.20;;
14373;SDS011;7270;49.004;12.066;2023-04-01T08:11:45;1.10;;;1.10;;
14373;SDS011;7270;49.004;12.066;2023-04-01T08:14:17;1.13;;;1.13;;
14373;SDS011;7270;49.004;12.066;2023-04-01T08:16:46;1.10;;;1.10;;
14373;SDS011;7270;49.004;12.066;2023-04-01T08:19:18;1.10;;;1.10;;
14373;SDS011;7270;49.004;12.066;2023-04-01T08:21:47;1.10;;;1.10;;
14373;SDS011;7270;49.004;12.066;2023-04-01T08:24:17;1.10;;;1.10;;
14373;SDS011;7270;49.004;12.066;2023-04-01T08:26:45;0.90;;;0.90;;
14373;SDS011;7270;49.004;12.066;2023-04-01T08:29:13;0.90;;;0.90;;
14373;SDS011;7270;49.004;12.066;2023-04-01T08:31:43;1.00;;;1.00;;
14373;SDS011;7270;49.004;12.066;2023-04-01T08:34:13;1.00;;;1.00;;
14373;SDS011;7270;49.004;12.066;2023-04-01T08:39:30;1.00;;;1.00;;
14373;SDS011;7270;49.004;12.066;2023-04-01T08:53:00;1.00;;;1.00;;
14373;SDS011;7270;49.004;12.066;2023-04-01T08:55:43;1.07;;;1.07;;
14373;SDS011;7270;49.004;12.066;2023-04-01T09:00:56;1.00;;;1.00;;
14373;SDS011;7270;49.004;12.066;2023-04-01T09:08:56;1.40;;;1.30;;
14373;SDS011;7270;49.004;12.066;2023-04-01T09:11:29;1.40;;;1.30;;
14373;SDS011;7270;49.004;12.066;2023-04-01T09:14:07;1.40;;;1.30;;
14373;SDS011;7270;49.004;12.066;2023-04-01T09:16:41;1.50;;;1.40;;
14373;SDS011;7270;49.004;12.066;2023-04-01T09:19:15;1.50;;;1.40;;
14373;SDS011;7270;49.004;12.066;2023-04-01T09:21:47;1.40;;;1.30;;
14373;SDS011;7270;49.004;12.066;2023-04-01T09:24:24;1.50;;;1.40;;
14373;SDS011;7270;49.004;12.066;2023-04-01T09:27:07;1.50;;;1.40;;
14373;SDS011;7270;49.004;12.066;2023-04-01T09:29:46;1.40;;;1.30;;
14373;SDS011;7270;49.004;12.066;2023-04-01T09:32:21;1.40;;;1.30;;
14373;SDS011;7270;49.004;12.066;2023-04-01T09:34:53;1.40;;;1.30;;
14373;SDS011;7270;49.004;12.066;2023-04-01T09:37:21;1.40;;;1.30;;
14373;SDS011;7270;49.004;12.066;2023-04-01T09:39:52;1.40;;;1.30;;
14373;SDS011;7270;49.004;12.066;2023-04-01T09:42:32;1.40;;;1.30;;
14373;SDS011;7270;49.004;12.066;2023-04-01T09:45:04;1.20;;;1.20;;
14373;SDS011;7270;49.004;12.066;2023-04-01T09:47:39;1.30;;;1.20;;
14373;SDS011;7270;49.004;12.066;2023-04-01T09:50:16;1.40;;;1.30;;
14373;SDS011;7270;49.004;12.066;2023-04-01T09:52:47;1.30;;;1.20;;
14373;SDS011;7270;49.004;12.066;2023-04-01T09:55:19;1.40;;;1.30;;
14373;SDS011;7270;49.004;12.066;2023-04-01T10:00:33;1.50;;;1.40;;
14373;SDS011;7270;49.004;12.066;2023-04-01T10:03:18;1.43;;;1.33;;
14373;SDS011;7270;49.004;12.066;2023-04-01T10:05:52;1.40;;;1.30;;
14373;SDS011;7270;49.004;12.066;2023-04-01T10:08:29;1.40;;;1.30;;
14373;SDS011;7270;49.004;12.066;2023-04-01T10:11:10;1.30;;;1.20;;
14373;SDS011;7270;49.004;12.066;2023-04-01T10:16:28;1.40;;;1.30;;
14373;SDS011;7270;49.004;12.066;2023-04-01T10:21:54;1.40;;;1.30;;
14373;SDS011;7270;49.004;12.066;2023-04-01T10:27:16;1.20;;;1.20;;
14373;SDS011;7270;49.004;12.066;2023-04-01T10:32:51;1.40;;;1.30;;
14373;SDS011;7270;49.004;12.066;2023-04-01T10:35:36;1.40;;;1.30;;
14373;SDS011;7270;49.004;12.066;2023-04-01T10:40:53;1.30;;;1.20;;
14373;SDS011;7270;49.004;12.066;2023-04-01T10:43:33;1.40;;;1.30;;
14373;SDS011;7270;49.004;12.066;2023-04-01T10:54:50;1.40;;;1.30;;
14373;SDS011;7270;49.004;12.066;2023-04-01T10:57:29;1.40;;;1.30;;
14373;SDS011;7270;49.004;12.066;2023-04-01T11:03:00;1.43;;;1.33;;
14373;SDS011;7270;49.004;12.066;2023-04-01T11:05:42;1.30;;;1.20;;
14373;SDS011;7270;49.004;12.066;2023-04-01T11:11:18;1.37;;;1.27;;
14373;SDS011;7270;49.004;12.066;2023-04-01T11:16:40;1.40;;;1.30;;
14373;SDS011;7270;49.004;12.066;2023-04-01T11:19:20;1.37;;;1.27;;
14373;SDS011;7270;49.004;12.066;2023-04-01T11:21:59;1.40;;;1.30;;
14373;SDS011;7270;49.004;12.066;2023-04-01T11:27:25;1.33;;;1.27;;
14373;SDS011;7270;49.004;12.066;2023-04-01T11:29:59;1.40;;;1.30;;
14373;SDS011;7270;49.004;12.066;2023-04-01T11:32:31;1.30;;;1.20;;
14373;SDS011;7270;49.004;12.066;2023-04-01T11:35:05;1.40;;;1.30;;
14373;SDS011;7270;49.004;12.066;2023-04-01T11:37:36;1.40;;;1.30;;
14373;SDS011;7270;49.004;12.066;2023-04-01T11:40:07;1.50;;;1.40;;
14373;SDS011;7270;49.004;12.066;2023-04-01T11:42:40;1.37;;;1.27;;
14373;SDS011;7270;49.004;12.066;2023-04-01T11:45:12;1.40;;;1.30;;
14373;SDS011;7270;49.004;12.066;2023-04-01T11:47:45;1.30;;;1.20;;
14373;SDS011;7270;49.004;12.066;2023-04-01T11:50:17;1.40;;;1.30;;
14373;SDS011;7270;49.004;12.066;2023-04-01T11:52:55;1.40;;;1.30;;
14373;SDS011;7270;49.004;12.066;2023-04-01T11:55:27;1.40;;;1.30;;
14373;SDS011;7270;49.004;12.066;2023-04-01T11:58:14;1.20;;;1.20;;
14373;SDS011;7270;49.004;12.066;2023-04-01T12:00:56;1.20;;;1.20;;
14373;SDS011;7270;49.004;12.066;2023-04-01T12:03:38;1.20;;;1.20;;
14373;SDS011;7270;49.004;12.066;2023-04-01T12:06:08;1.10;;;1.10;;
14373;SDS011;7270;49.004;12.066;2023-04-01T12:08:39;1.20;;;1.20;;
14373;SDS011;7270;49.004;12.066;2023-04-01T12:11:11;1.23;;;1.20;;
14373;SDS011;7270;49.004;12.066;2023-04-01T12:13:48;1.10;;;1.10;;
14373;SDS011;7270;49.004;12.066;2023-04-01T12:16:25;1.10;;;1.10;;
14373;SDS011;7270;49.004;12.066;2023-04-01T12:18:56;1.10;;;1.10;;
14373;SDS011;7270;49.004;12.066;2023-04-01T12:21:25;1.17;;;1.17;;
14373;SDS011;7270;49.004;12.066;2023-04-01T12:24:02;1.20;;;1.20;;
14373;SDS011;7270;49.004;12.066;2023-04-01T12:26:33;1.10;;;1.10;;
14373;SDS011;7270;49.004;12.066;2023-04-01T12:29:12;1.20;;;1.20;;
14373;SDS011;7270;49.004;12.066;2023-04-01T12:31:46;1.23;;;1.20;;
14373;SDS011;7270;49.004;12.066;2023-04-01T12:34:35;1.30;;;1.20;;
14373;SDS011;7270;49.004;12.066;2023-04-01T12:37:07;1.30;;;1.20;;
14373;SDS011;7270;49.004;12.066;2023-04-01T12:42:23;1.20;;;1.20;;
14373;SDS011;7270;49.004;12.066;2023-04-01T12:45:07;1.20;;;1.20;;
14373;SDS011;7270;49.004;12.066;2023-04-01T12:47:42;1.20;;;1.20;;
14373;SDS011;7270;49.004;12.066;2023-04-01T12:53:10;1.40;;;1.30;;
14373;SDS011;7270;49.004;12.066;2023-04-01T12:55:44;1.40;;;1.30;;
14373;SDS011;7270;49.004;12.066;2023-04-01T12:58:22;1.20;;;1.20;;
14373;SDS011;7270;49.004;12.066;2023-04-01T13:01:00;1.40;;;1.30;;
14373;SDS011;7270;49.004;12.066;2023-04-01T13:03:35;1.53;;;1.43;;
14373;SDS011;7270;49.004;12.066;2023-04-01T13:08:49;1.40;;;1.30;;
14373;SDS011;7270;49.004;12.066;2023-04-01T13:11:19;1.50;;;1.40;;
14373;SDS011;7270;49.004;12.066;2023-04-01T13:14:01;1.50;;;1.40;;
14373;SDS011;7270;49.004;12.066;2023-04-01T13:16:35;1.50;;;1.40;;
14373;SDS011;7270;49.004;12.066;2023-04-01T13:19:04;1.40;;;1.30;;
14373;SDS011;7270;49.004;12.066;2023-04-01T13:21:44;1.50;;;1.40;;
14373;SDS011;7270;49.004;12.066;2023-04-01T13:24:19;1.40;;;1.30;;
14373;SDS011;7270;49.004;12.066;2023-04-01T13:26:49;1.50;;;1.40;;
14373;SDS011;7270;49.004;12.066;2023-04-01T13:29:20;1.40;;;1.30;;
14373;SDS011;7270;49.004;12.066;2023-04-01T13:31:58;1.40;;;1.30;;
14373;SDS011;7270;49.004;12.066;2023-04-01T13:34:30;1.40;;;1.30;;
14373;SDS011;7270;49.004;12.066;2023-04-01T13:37:08;1.40;;;1.30;;
14373;SDS011;7270;49.004;12.066;2023-04-01T13:42:21;1.40;;;1.30;;
14373;SDS011;7270;49.004;12.066;2023-04-01T13:44:51;1.17;;;1.17;;
14373;SDS011;7270;49.004;12.066;2023-04-01T13:50:07;1.30;;;1.20;;
14373;SDS011;7270;49.004;12.066;2023-04-01T13:55:31;1.30;;;1.20;;
14373;SDS011;7270;49.004;12.066;2023-04-01T14:01:00;1.40;;;1.30;;
14373;SDS011;7270;49.004;12.066;2023-04-01T14:03:32;1.57;;;1.47;;
14373;SDS011;7270;49.004;12.066;2023-04-01T14:06:16;1.30;;;1.20;;
14373;SDS011;7270;49.004;12.066;2023-04-01T14:08:55;1.40;;;1.30;;
14373;SDS011;7270;49.004;12.066;2023-04-01T14:11:26;1.40;;;1.30;;
14373;SDS011;7270;49.004;12.066;2023-04-01T14:13:59;1.40;;;1.30;;
14373;SDS011;7270;49.004;12.066;2023-04-01T14:19:24;1.20;;;1.20;;
14373;SDS011;7270;49.004;12.066;2023-04-01T14:22:00;1.30;;;1.20;;
14373;SDS011;7270;49.004;12.066;2023-04-01T14:24:34;1.40;;;1.30;;
14373;SDS011;7270;49.004;12.066;2023-04-01T14:29:56;1.40;;;1.30;;
14373;SDS011;7270;49.004;12.066;2023-04-01T14:32:27;1.37;;;1.30;;
14373;SDS011;7270;49.004;12.066;2023-04-01T14:34:59;1.40;;;1.30;;
14373;SDS011;7270;49.004;12.066;2023-04-01T14:37:38;1.40;;;1.30;;
14373;SDS011;7270;49.004;12.066;2023-04-01T14:40:24;1.40;;;1.30;;
14373;SDS011;7270;49.004;12.066;2023-04-01T14:45:46;1.40;;;1.30;;
14373;SDS011;7270;49.004;12.066;2023-04-01T14:48:21;1.40;;;1.30;;
14373;SDS011;7270;49.004;12.066;2023-04-01T14:50:49;1.30;;;1.20;;
14373;SDS011;7270;49.004;12.066;2023-04-01T14:55:57;1.40;;;1.30;;
14373;SDS011;7270;49.004;12.066;2023-04-01T14:58:24;1.40;;;1.30;;
14373;SDS011;7270;49.004;12.066;2023-04-01T15:00:57;1.30;;;1.20;;
14373;SDS011;7270;49.004;12.066;2023-04-01T15:03:26;1.30;;;1.20;;
14373;SDS011;7270;49.004;12.066;2023-04-01T15:05:55;1.40;;;1.30;;
14373;SDS011;7270;49.004;12.066;2023-04-01T15:08:23;1.40;;;1.30;;
14373;SDS011;7270;49.004;12.066;2023-04-01T15:11:17;1.40;;;1.30;;
14373;SDS011;7270;49.004;12.066;2023-04-01T15:13:59;1.40;;;1.30;;
14373;SDS011;7270;49.004;12.066;2023-04-01T15:16:31;1.40;;;1.30;;
14373;SDS011;7270;49.004;12.066;2023-04-01T15:19:02;1.30;;;1.20;;
14373;SDS011;7270;49.004;12.066;2023-04-01T15:21:32;1.40;;;1.30;;
14373;SDS011;7270;49.004;12.066;2023-04-01T15:24:05;1.30;;;1.20;;
14373;SDS011;7270;49.004;12.066;2023-04-01T15:29:31;1.40;;;1.30;;
14373;SDS011;7270;49.004;12.066;2023-04-01T15:32:01;1.20;;;1.20;;
14373;SDS011;7270;49.004;12.066;2023-04-01T15:34:32;1.30;;;1.20;;
14373;SDS011;7270;49.004;12.066;2023-04-01T15:37:02;1.20;;;1.20;;
14373;SDS011;7270;49.004;12.066;2023-04-01T15:39:40;1.40;;;1.30;;
14373;SDS011;7270;49.004;12.066;2023-04-01T15:42:12;1.20;;;1.20;;
14373;SDS011;7270;49.004;12.066;2023-04-01T15:44:44;1.10;;;1.10;;
14373;SDS011;7270;49.004;12.066;2023-04-01T15:47:25;1.20;;;1.20;;
14373;SDS011;7270;49.004;12.066;2023-04-01T15:49:57;1.30;;;1.20;;
14373;SDS011;7270;49.004;12.066;2023-04-01T15:52:34;1.40;;;1.30;;
14373;SDS011;7270;49.004;12.066;2023-04-01T15:55:16;1.10;;;1.10;;
14373;SDS011;7270;49.004;12.066;2023-04-01T15:57:48;1.30;;;1.20;;
14373;SDS011;7270;49.004;12.066;2023-04-01T16:00:21;1.20;;;1.20;;
14373;SDS011;7270;49.004;12.066;2023-04-01T16:02:49;1.30;;;1.20;;
14373;SDS011;7270;49.004;12.066;2023-04-01T16:08:07;1.30;;;1.20;;
14373;SDS011;7270;49.004;12.066;2023-04-01T16:10:44;1.20;;;1.20;;
14373;SDS011;7270;49.004;12.066;2023-04-01T16:13:21;1.20;;;1.20;;
14373;SDS011;7270;49.004;12.066;2023-04-01T16:15:52;1.27;;;1.20;;
14373;SDS011;7270;49.004;12.066;2023-04-01T16:21:08;1.20;;;1.20;;
14373;SDS011;7270;49.004;12.066;2023-04-01T16:23:39;1.10;;;1.10;;
14373;SDS011;7270;49.004;12.066;2023-04-01T16:26:07;1.10;;;1.10;;
14373;SDS011;7270;49.004;12.066;2023-04-01T16:28:36;1.13;;;1.13;;
14373;SDS011;7270;49.004;12.066;2023-04-01T16:31:06;1.30;;;1.20;;
14373;SDS011;7270;49.004;12.066;2023-04-01T16:33:40;1.10;;;1.10;;
14373;SDS011;7270;49.004;12.066;2023-04-01T16:36:12;1.10;;;1.10;;
14373;SDS011;7270;49.004;12.066;2023-04-01T16:38:41;1.10;;;1.10;;
14373;SDS011;7270;49.004;12.066;2023-04-01T16:41:11;1.10;;;1.10;;
14373;SDS011;7270;49.004;12.066;2023-04-01T16:43:41;1.10;;;1.10;;
14373;SDS011;7270;49.004;12.066;2023-04-01T16:46:18;1.10;;;1.10;;
14373;SDS011;7270;49.004;12.066;2023-04-01T16:48:50;1.00;;;1.00;;
14373;SDS011;7270;49.004;12.066;2023-04-01T16:51:20;1.10;;;1.10;;
14373;SDS011;7270;49.004;12.066;2023-04-01T16:53:50;1.27;;;1.20;;
14373;SDS011;7270;49.004;12.066;2023-04-01T16:56:27;1.10;;;1.10;;
14373;SDS011;7270;49.004;12.066;2023-04-01T16:58:59;1.10;;;1.10;;